sensor_id;sensor_type;location;lat;lon;timestamp;P1;durP1;ratioP1;P2;durP2;ratioP2
70683;SDS011;58263;48.146;11.440;2024-03-08T00:00:14;18.00;;;9.63;;
70683;SDS011;58263;48.146;11.440;2024-03-08T00:02:43;17.40;;;8.30;;
70683;SDS011;58263;48.146;11.440;2024-03-08T00:05:12;15.73;;;8.50;;
70683;SDS011;58263;48.146;11.440;2024-03-08T00:07:39;16.15;;;8.40;;
70683;SDS011;58263;48.146;11.440;2024-03-08T00:10:08;17.52;;;9.48;;
70683;SDS011;58263;48.146;11.440;2024-03-08T00:12:36;16.17;;;8.10;;
70683;SDS011;58263;48.146;11.440;2024-03-08T00:15:02;15.73;;;8.20;;
70683;SDS011;58263;48.146;11.440;2024-03-08T00:17:27;15.15;;;8.23;;
70683;SDS011;58263;48.146;11.440;2024-03-08T00:19:53;15.85;;;7.28;;
70683;SDS011;58263;48.146;11.440;2024-03-08T00:22:18;17.40;;;8.87;;
70683;SDS011;58263;48.146;11.440;2024-03-08T00:24:44;14.10;;;8.43;;
70683;SDS011;58263;48.146;11.440;2024-03-08T00:27:10;17.05;;;7.45;;
70683;SDS011;58263;48.146;11.440;2024-03-08T00:29:36;12.55;;;6.93;;
70683;SDS011;58263;48.146;11.440;2024-03-08T00:32:03;17.10;;;7.90;;
70683;SDS011;58263;48.146;11.440;2024-03-08T00:34:29;12.40;;;7.38;;
70683;SDS011;58263;48.146;11.440;2024-03-08T00:36:54;17.30;;;9.00;;
70683;SDS011;58263;48.146;11.440;2024-03-08T00:39:19;20.93;;;8.03;;
70683;SDS011;58263;48.146;11.440;2024-03-08T00:41:46;16.05;;;8.80;;
70683;SDS011;58263;48.146;11.440;2024-03-08T00:44:11;17.23;;;8.75;;
70683;SDS011;58263;48.146;11.440;2024-03-08T00:46:36;19.57;;;8.50;;
70683;SDS011;58263;48.146;11.440;2024-03-08T00:49:01;22.30;;;8.67;;
70683;SDS011;58263;48.146;11.440;2024-03-08T00:51:27;19.10;;;9.37;;
70683;SDS011;58263;48.146;11.440;2024-03-08T00:53:52;13.17;;;7.37;;
70683;SDS011;58263;48.146;11.440;2024-03-08T00:56:17;14.03;;;7.63;;
70683;SDS011;58263;48.146;11.440;2024-03-08T00:58:43;15.10;;;8.03;;
70683;SDS011;58263;48.146;11.440;2024-03-08T01:01:08;15.10;;;7.30;;
70683;SDS011;58263;48.146;11.440;2024-03-08T01:03:35;14.35;;;6.75;;
70683;SDS011;58263;48.146;11.440;2024-03-08T01:06:00;12.63;;;7.63;;
70683;SDS011;58263;48.146;11.440;2024-03-08T01:08:26;16.83;;;7.38;;
70683;SDS011;58263;48.146;11.440;2024-03-08T01:10:52;15.13;;;7.82;;
70683;SDS011;58263;48.146;11.440;2024-03-08T01:13:17;16.20;;;8.35;;
70683;SDS011;58263;48.146;11.440;2024-03-08T01:15:44;12.90;;;7.32;;
70683;SDS011;58263;48.146;11.440;2024-03-08T01:18:09;14.83;;;7.87;;
70683;SDS011;58263;48.146;11.440;2024-03-08T01:20:35;15.00;;;7.93;;
70683;SDS011;58263;48.146;11.440;2024-03-08T01:23:00;13.68;;;7.18;;
70683;SDS011;58263;48.146;11.440;2024-03-08T01:25:26;14.68;;;7.45;;
70683;SDS011;58263;48.146;11.440;2024-03-08T01:27:52;15.50;;;8.43;;
70683;SDS011;58263;48.146;11.440;2024-03-08T01:30:18;13.15;;;7.78;;
70683;SDS011;58263;48.146;11.440;2024-03-08T01:32:44;17.05;;;8.65;;
70683;SDS011;58263;48.146;11.440;2024-03-08T01:35:09;13.60;;;7.90;;
70683;SDS011;58263;48.146;11.440;2024-03-08T01:37:35;13.45;;;7.88;;
70683;SDS011;58263;48.146;11.440;2024-03-08T01:40:00;14.40;;;7.45;;
70683;SDS011;58263;48.146;11.440;2024-03-08T01:42:26;16.30;;;7.43;;
70683;SDS011;58263;48.146;11.440;2024-03-08T01:44:51;17.00;;;8.47;;
70683;SDS011;58263;48.146;11.440;2024-03-08T01:47:16;17.77;;;8.27;;
70683;SDS011;58263;48.146;11.440;2024-03-08T01:49:42;17.98;;;8.98;;
70683;SDS011;58263;48.146;11.440;2024-03-08T01:52:08;13.73;;;8.05;;
70683;SDS011;58263;48.146;11.440;2024-03-08T01:54:34;13.95;;;7.63;;
70683;SDS011;58263;48.146;11.440;2024-03-08T01:57:00;14.85;;;8.15;;
70683;SDS011;58263;48.146;11.440;2024-03-08T01:59:26;14.20;;;8.30;;
70683;SDS011;58263;48.146;11.440;2024-03-08T02:01:52;15.30;;;8.23;;
70683;SDS011;58263;48.146;11.440;2024-03-08T02:04:20;14.70;;;7.78;;
70683;SDS011;58263;48.146;11.440;2024-03-08T02:06:46;15.43;;;8.35;;
70683;SDS011;58263;48.146;11.440;2024-03-08T02:09:11;16.03;;;7.77;;
70683;SDS011;58263;48.146;11.440;2024-03-08T02:11:36;15.53;;;8.03;;
70683;SDS011;58263;48.146;11.440;2024-03-08T02:14:02;13.50;;;8.18;;
70683;SDS011;58263;48.146;11.440;2024-03-08T02:16:27;14.27;;;8.03;;
70683;SDS011;58263;48.146;11.440;2024-03-08T02:18:53;14.93;;;8.07;;
70683;SDS011;58263;48.146;11.440;2024-03-08T02:21:18;15.37;;;9.10;;
70683;SDS011;58263;48.146;11.440;2024-03-08T02:23:43;14.77;;;8.90;;
70683;SDS011;58263;48.146;11.440;2024-03-08T02:26:09;14.50;;;7.28;;
70683;SDS011;58263;48.146;11.440;2024-03-08T02:28:34;17.52;;;8.35;;
70683;SDS011;58263;48.146;11.440;2024-03-08T02:31:00;15.23;;;8.77;;
70683;SDS011;58263;48.146;11.440;2024-03-08T02:33:26;13.50;;;7.73;;
70683;SDS011;58263;48.146;11.440;2024-03-08T02:35:52;14.27;;;8.60;;
70683;SDS011;58263;48.146;11.440;2024-03-08T02:38:18;16.23;;;9.05;;
70683;SDS011;58263;48.146;11.440;2024-03-08T02:40:45;17.55;;;8.98;;
70683;SDS011;58263;48.146;11.440;2024-03-08T02:43:12;12.43;;;7.80;;
70683;SDS011;58263;48.146;11.440;2024-03-08T02:45:39;16.33;;;8.20;;
70683;SDS011;58263;48.146;11.440;2024-03-08T02:48:06;15.88;;;8.45;;
70683;SDS011;58263;48.146;11.440;2024-03-08T02:50:32;13.98;;;7.85;;
70683;SDS011;58263;48.146;11.440;2024-03-08T02:52:59;17.05;;;9.32;;
70683;SDS011;58263;48.146;11.440;2024-03-08T02:55:25;20.10;;;9.20;;
70683;SDS011;58263;48.146;11.440;2024-03-08T02:57:51;16.38;;;8.88;;
70683;SDS011;58263;48.146;11.440;2024-03-08T03:00:17;17.92;;;8.65;;
70683;SDS011;58263;48.146;11.440;2024-03-08T03:02:44;14.70;;;8.80;;
70683;SDS011;58263;48.146;11.440;2024-03-08T03:05:09;19.98;;;9.20;;
70683;SDS011;58263;48.146;11.440;2024-03-08T03:07:36;15.65;;;8.43;;
70683;SDS011;58263;48.146;11.440;2024-03-08T03:10:02;17.65;;;9.30;;
70683;SDS011;58263;48.146;11.440;2024-03-08T03:12:28;15.40;;;8.02;;
70683;SDS011;58263;48.146;11.440;2024-03-08T03:14:54;14.40;;;8.32;;
70683;SDS011;58263;48.146;11.440;2024-03-08T03:17:19;15.88;;;8.55;;
70683;SDS011;58263;48.146;11.440;2024-03-08T03:19:45;19.58;;;9.07;;
70683;SDS011;58263;48.146;11.440;2024-03-08T03:22:11;17.02;;;9.38;;
70683;SDS011;58263;48.146;11.440;2024-03-08T03:24:37;14.70;;;9.38;;
70683;SDS011;58263;48.146;11.440;2024-03-08T03:27:03;18.10;;;9.18;;
70683;SDS011;58263;48.146;11.440;2024-03-08T03:29:35;17.30;;;8.80;;
70683;SDS011;58263;48.146;11.440;2024-03-08T03:32:01;19.77;;;8.98;;
70683;SDS011;58263;48.146;11.440;2024-03-08T03:34:28;17.13;;;9.02;;
70683;SDS011;58263;48.146;11.440;2024-03-08T03:36:54;17.60;;;9.50;;
70683;SDS011;58263;48.146;11.440;2024-03-08T03:39:20;14.90;;;8.27;;
70683;SDS011;58263;48.146;11.440;2024-03-08T03:41:47;16.63;;;9.73;;
70683;SDS011;58263;48.146;11.440;2024-03-08T03:44:17;19.08;;;8.13;;
70683;SDS011;58263;48.146;11.440;2024-03-08T03:46:42;16.38;;;8.50;;
70683;SDS011;58263;48.146;11.440;2024-03-08T03:49:11;17.00;;;8.82;;
70683;SDS011;58263;48.146;11.440;2024-03-08T03:51:37;13.27;;;8.23;;
70683;SDS011;58263;48.146;11.440;2024-03-08T03:54:02;20.07;;;8.77;;
70683;SDS011;58263;48.146;11.440;2024-03-08T03:56:28;16.63;;;8.90;;
70683;SDS011;58263;48.146;11.440;2024-03-08T03:58:55;17.25;;;8.95;;
70683;SDS011;58263;48.146;11.440;2024-03-08T04:01:21;14.85;;;8.50;;
70683;SDS011;58263;48.146;11.440;2024-03-08T04:03:46;17.10;;;9.30;;
70683;SDS011;58263;48.146;11.440;2024-03-08T04:06:12;16.45;;;9.50;;
70683;SDS011;58263;48.146;11.440;2024-03-08T04:08:37;17.77;;;9.02;;
70683;SDS011;58263;48.146;11.440;2024-03-08T04:11:03;19.03;;;9.17;;
70683;SDS011;58263;48.146;11.440;2024-03-08T04:13:28;17.00;;;9.55;;
70683;SDS011;58263;48.146;11.440;2024-03-08T04:15:54;16.80;;;8.02;;
70683;SDS011;58263;48.146;11.440;2024-03-08T04:18:19;16.83;;;9.30;;
70683;SDS011;58263;48.146;11.440;2024-03-08T04:20:44;15.90;;;8.77;;
70683;SDS011;58263;48.146;11.440;2024-03-08T04:23:10;17.65;;;8.60;;
70683;SDS011;58263;48.146;11.440;2024-03-08T04:25:35;17.07;;;8.83;;
70683;SDS011;58263;48.146;11.440;2024-03-08T04:28:01;17.93;;;9.73;;
70683;SDS011;58263;48.146;11.440;2024-03-08T04:30:26;20.30;;;9.30;;
70683;SDS011;58263;48.146;11.440;2024-03-08T04:32:53;16.80;;;9.48;;
70683;SDS011;58263;48.146;11.440;2024-03-08T04:35:19;15.63;;;8.73;;
70683;SDS011;58263;48.146;11.440;2024-03-08T04:37:45;17.83;;;9.23;;
70683;SDS011;58263;48.146;11.440;2024-03-08T04:40:10;21.70;;;10.18;;
70683;SDS011;58263;48.146;11.440;2024-03-08T04:42:36;18.83;;;9.48;;
70683;SDS011;58263;48.146;11.440;2024-03-08T04:45:02;14.68;;;8.48;;
70683;SDS011;58263;48.146;11.440;2024-03-08T04:47:29;16.15;;;8.65;;
70683;SDS011;58263;48.146;11.440;2024-03-08T04:49:54;21.30;;;9.33;;
70683;SDS011;58263;48.146;11.440;2024-03-08T04:52:21;15.60;;;9.15;;
70683;SDS011;58263;48.146;11.440;2024-03-08T04:54:47;18.50;;;8.80;;
70683;SDS011;58263;48.146;11.440;2024-03-08T04:57:12;17.98;;;9.52;;
70683;SDS011;58263;48.146;11.440;2024-03-08T04:59:37;18.60;;;9.90;;
70683;SDS011;58263;48.146;11.440;2024-03-08T05:02:03;19.37;;;8.97;;
70683;SDS011;58263;48.146;11.440;2024-03-08T05:04:29;17.25;;;9.60;;
70683;SDS011;58263;48.146;11.440;2024-03-08T05:06:54;21.37;;;10.57;;
70683;SDS011;58263;48.146;11.440;2024-03-08T05:09:20;20.10;;;9.90;;
70683;SDS011;58263;48.146;11.440;2024-03-08T05:11:46;18.85;;;9.43;;
70683;SDS011;58263;48.146;11.440;2024-03-08T05:14:15;17.98;;;9.38;;
70683;SDS011;58263;48.146;11.440;2024-03-08T05:16:46;21.63;;;10.25;;
70683;SDS011;58263;48.146;11.440;2024-03-08T05:19:14;17.85;;;9.32;;
70683;SDS011;58263;48.146;11.440;2024-03-08T05:21:41;19.55;;;9.52;;
70683;SDS011;58263;48.146;11.440;2024-03-08T05:24:08;18.88;;;10.25;;
70683;SDS011;58263;48.146;11.440;2024-03-08T05:26:35;20.33;;;10.60;;
70683;SDS011;58263;48.146;11.440;2024-03-08T05:29:00;18.58;;;10.35;;
70683;SDS011;58263;48.146;11.440;2024-03-08T05:31:25;16.57;;;9.53;;
70683;SDS011;58263;48.146;11.440;2024-03-08T05:33:50;19.33;;;9.93;;
70683;SDS011;58263;48.146;11.440;2024-03-08T05:36:16;19.40;;;10.07;;
70683;SDS011;58263;48.146;11.440;2024-03-08T05:38:42;18.73;;;10.30;;
70683;SDS011;58263;48.146;11.440;2024-03-08T05:41:08;16.80;;;9.90;;
70683;SDS011;58263;48.146;11.440;2024-03-08T05:43:34;23.75;;;10.90;;
70683;SDS011;58263;48.146;11.440;2024-03-08T05:45:59;18.37;;;9.87;;
70683;SDS011;58263;48.146;11.440;2024-03-08T05:48:24;19.10;;;9.60;;
70683;SDS011;58263;48.146;11.440;2024-03-08T05:50:50;18.50;;;9.75;;
70683;SDS011;58263;48.146;11.440;2024-03-08T05:53:15;20.05;;;10.30;;
70683;SDS011;58263;48.146;11.440;2024-03-08T05:55:40;19.70;;;10.93;;
70683;SDS011;58263;48.146;11.440;2024-03-08T05:58:06;18.97;;;9.63;;
70683;SDS011;58263;48.146;11.440;2024-03-08T06:00:32;20.80;;;10.45;;
70683;SDS011;58263;48.146;11.440;2024-03-08T06:02:58;17.98;;;9.50;;
70683;SDS011;58263;48.146;11.440;2024-03-08T06:05:23;18.07;;;10.10;;
70683;SDS011;58263;48.146;11.440;2024-03-08T06:07:49;18.17;;;9.30;;
70683;SDS011;58263;48.146;11.440;2024-03-08T06:10:15;17.97;;;9.20;;
70683;SDS011;58263;48.146;11.440;2024-03-08T06:12:42;20.48;;;9.75;;
70683;SDS011;58263;48.146;11.440;2024-03-08T06:15:08;19.83;;;10.07;;
70683;SDS011;58263;48.146;11.440;2024-03-08T06:17:35;18.20;;;8.82;;
70683;SDS011;58263;48.146;11.440;2024-03-08T06:22:36;19.75;;;9.77;;
70683;SDS011;58263;48.146;11.440;2024-03-08T06:25:06;15.57;;;7.95;;
70683;SDS011;58263;48.146;11.440;2024-03-08T06:27:32;18.63;;;9.18;;
70683;SDS011;58263;48.146;11.440;2024-03-08T06:29:58;17.92;;;8.93;;
70683;SDS011;58263;48.146;11.440;2024-03-08T06:32:24;19.40;;;9.77;;
70683;SDS011;58263;48.146;11.440;2024-03-08T06:34:49;18.70;;;9.63;;
70683;SDS011;58263;48.146;11.440;2024-03-08T06:37:15;17.43;;;9.90;;
70683;SDS011;58263;48.146;11.440;2024-03-08T06:39:40;20.67;;;10.23;;
70683;SDS011;58263;48.146;11.440;2024-03-08T06:42:05;17.30;;;9.60;;
70683;SDS011;58263;48.146;11.440;2024-03-08T06:44:31;20.17;;;9.40;;
70683;SDS011;58263;48.146;11.440;2024-03-08T06:46:56;17.70;;;8.45;;
70683;SDS011;58263;48.146;11.440;2024-03-08T06:49:21;18.90;;;9.50;;
70683;SDS011;58263;48.146;11.440;2024-03-08T06:51:46;17.87;;;10.00;;
70683;SDS011;58263;48.146;11.440;2024-03-08T06:54:12;16.90;;;9.80;;
70683;SDS011;58263;48.146;11.440;2024-03-08T06:56:37;18.27;;;8.83;;
70683;SDS011;58263;48.146;11.440;2024-03-08T06:59:03;16.15;;;9.13;;
70683;SDS011;58263;48.146;11.440;2024-03-08T07:01:28;20.38;;;10.23;;
70683;SDS011;58263;48.146;11.440;2024-03-08T07:03:57;17.52;;;9.57;;
70683;SDS011;58263;48.146;11.440;2024-03-08T07:06:22;14.55;;;7.88;;
70683;SDS011;58263;48.146;11.440;2024-03-08T07:08:48;16.53;;;9.37;;
70683;SDS011;58263;48.146;11.440;2024-03-08T07:11:13;18.63;;;9.30;;
70683;SDS011;58263;48.146;11.440;2024-03-08T07:13:43;18.90;;;9.05;;
70683;SDS011;58263;48.146;11.440;2024-03-08T07:16:08;22.83;;;9.77;;
70683;SDS011;58263;48.146;11.440;2024-03-08T07:18:33;17.70;;;9.30;;
70683;SDS011;58263;48.146;11.440;2024-03-08T07:21:01;18.23;;;9.45;;
70683;SDS011;58263;48.146;11.440;2024-03-08T07:23:27;18.90;;;9.50;;
70683;SDS011;58263;48.146;11.440;2024-03-08T07:26:30;17.98;;;8.82;;
70683;SDS011;58263;48.146;11.440;2024-03-08T07:28:56;17.42;;;8.88;;
70683;SDS011;58263;48.146;11.440;2024-03-08T07:31:23;17.55;;;8.60;;
70683;SDS011;58263;48.146;11.440;2024-03-08T07:33:59;18.15;;;9.15;;
70683;SDS011;58263;48.146;11.440;2024-03-08T07:36:25;18.10;;;10.27;;
70683;SDS011;58263;48.146;11.440;2024-03-08T07:38:50;16.67;;;9.45;;
70683;SDS011;58263;48.146;11.440;2024-03-08T07:41:16;20.52;;;10.52;;
70683;SDS011;58263;48.146;11.440;2024-03-08T07:43:41;18.95;;;9.90;;
70683;SDS011;58263;48.146;11.440;2024-03-08T07:46:07;19.00;;;9.30;;
70683;SDS011;58263;48.146;11.440;2024-03-08T07:48:35;20.08;;;9.10;;
70683;SDS011;58263;48.146;11.440;2024-03-08T07:51:01;19.33;;;9.48;;
70683;SDS011;58263;48.146;11.440;2024-03-08T07:53:27;17.50;;;9.63;;
70683;SDS011;58263;48.146;11.440;2024-03-08T07:55:53;19.60;;;8.97;;
70683;SDS011;58263;48.146;11.440;2024-03-08T07:58:18;20.00;;;10.20;;
70683;SDS011;58263;48.146;11.440;2024-03-08T08:00:43;17.17;;;8.90;;
70683;SDS011;58263;48.146;11.440;2024-03-08T08:03:09;18.83;;;9.77;;
70683;SDS011;58263;48.146;11.440;2024-03-08T08:05:34;17.50;;;9.57;;
70683;SDS011;58263;48.146;11.440;2024-03-08T08:08:03;19.65;;;9.85;;
70683;SDS011;58263;48.146;11.440;2024-03-08T08:10:31;19.52;;;9.65;;
70683;SDS011;58263;48.146;11.440;2024-03-08T08:12:57;19.20;;;10.20;;
70683;SDS011;58263;48.146;11.440;2024-03-08T08:15:23;17.42;;;8.95;;
70683;SDS011;58263;48.146;11.440;2024-03-08T08:17:48;22.50;;;10.63;;
70683;SDS011;58263;48.146;11.440;2024-03-08T08:20:13;19.37;;;10.67;;
70683;SDS011;58263;48.146;11.440;2024-03-08T08:22:42;15.57;;;9.10;;
70683;SDS011;58263;48.146;11.440;2024-03-08T08:25:08;21.02;;;9.82;;
70683;SDS011;58263;48.146;11.440;2024-03-08T08:27:33;19.50;;;9.77;;
70683;SDS011;58263;48.146;11.440;2024-03-08T08:29:58;17.93;;;8.83;;
70683;SDS011;58263;48.146;11.440;2024-03-08T08:32:24;17.05;;;9.02;;
70683;SDS011;58263;48.146;11.440;2024-03-08T08:34:49;18.17;;;9.32;;
70683;SDS011;58263;48.146;11.440;2024-03-08T08:37:15;17.92;;;9.43;;
70683;SDS011;58263;48.146;11.440;2024-03-08T08:39:41;17.95;;;9.75;;
70683;SDS011;58263;48.146;11.440;2024-03-08T08:42:06;14.50;;;9.05;;
70683;SDS011;58263;48.146;11.440;2024-03-08T08:44:34;16.45;;;9.65;;
70683;SDS011;58263;48.146;11.440;2024-03-08T08:47:00;16.67;;;9.10;;
70683;SDS011;58263;48.146;11.440;2024-03-08T08:49:25;18.63;;;9.38;;
70683;SDS011;58263;48.146;11.440;2024-03-08T08:51:51;19.13;;;10.45;;
70683;SDS011;58263;48.146;11.440;2024-03-08T08:54:16;18.92;;;9.75;;
70683;SDS011;58263;48.146;11.440;2024-03-08T08:56:42;16.15;;;9.10;;
70683;SDS011;58263;48.146;11.440;2024-03-08T08:59:09;17.85;;;8.85;;
70683;SDS011;58263;48.146;11.440;2024-03-08T09:01:34;19.60;;;10.20;;
70683;SDS011;58263;48.146;11.440;2024-03-08T09:04:00;17.90;;;9.83;;
70683;SDS011;58263;48.146;11.440;2024-03-08T09:06:25;20.30;;;9.87;;
70683;SDS011;58263;48.146;11.440;2024-03-08T09:08:50;18.95;;;9.15;;
70683;SDS011;58263;48.146;11.440;2024-03-08T09:11:16;18.73;;;10.17;;
70683;SDS011;58263;48.146;11.440;2024-03-08T09:13:43;16.70;;;8.93;;
70683;SDS011;58263;48.146;11.440;2024-03-08T09:18:35;18.63;;;8.32;;
70683;SDS011;58263;48.146;11.440;2024-03-08T09:21:01;18.43;;;9.50;;
70683;SDS011;58263;48.146;11.440;2024-03-08T09:23:26;17.93;;;9.80;;
70683;SDS011;58263;48.146;11.440;2024-03-08T09:25:55;18.23;;;9.55;;
70683;SDS011;58263;48.146;11.440;2024-03-08T09:28:23;16.17;;;9.10;;
70683;SDS011;58263;48.146;11.440;2024-03-08T09:30:49;18.17;;;10.57;;
70683;SDS011;58263;48.146;11.440;2024-03-08T09:33:14;19.03;;;9.93;;
70683;SDS011;58263;48.146;11.440;2024-03-08T09:35:44;19.58;;;9.68;;
70683;SDS011;58263;48.146;11.440;2024-03-08T09:38:11;19.45;;;10.32;;
70683;SDS011;58263;48.146;11.440;2024-03-08T09:40:38;18.42;;;9.68;;
70683;SDS011;58263;48.146;11.440;2024-03-08T09:43:03;15.90;;;8.95;;
70683;SDS011;58263;48.146;11.440;2024-03-08T09:45:29;17.13;;;9.70;;
70683;SDS011;58263;48.146;11.440;2024-03-08T09:48:00;16.08;;;9.23;;
70683;SDS011;58263;48.146;11.440;2024-03-08T09:50:26;16.25;;;8.98;;
70683;SDS011;58263;48.146;11.440;2024-03-08T09:52:52;14.50;;;8.60;;
70683;SDS011;58263;48.146;11.440;2024-03-08T09:55:22;18.25;;;9.75;;
70683;SDS011;58263;48.146;11.440;2024-03-08T09:57:47;17.70;;;9.13;;
70683;SDS011;58263;48.146;11.440;2024-03-08T10:00:33;16.23;;;9.43;;
70683;SDS011;58263;48.146;11.440;2024-03-08T10:03:02;17.00;;;9.13;;
70683;SDS011;58263;48.146;11.440;2024-03-08T10:05:27;17.33;;;10.23;;
70683;SDS011;58263;48.146;11.440;2024-03-08T10:07:53;18.15;;;9.90;;
70683;SDS011;58263;48.146;11.440;2024-03-08T10:10:18;18.40;;;10.07;;
70683;SDS011;58263;48.146;11.440;2024-03-08T10:12:44;18.60;;;9.80;;
70683;SDS011;58263;48.146;11.440;2024-03-08T10:15:10;18.80;;;10.70;;
70683;SDS011;58263;48.146;11.440;2024-03-08T10:17:37;16.85;;;9.50;;
70683;SDS011;58263;48.146;11.440;2024-03-08T10:20:10;15.85;;;9.15;;
70683;SDS011;58263;48.146;11.440;2024-03-08T10:22:39;18.55;;;9.68;;
70683;SDS011;58263;48.146;11.440;2024-03-08T10:25:07;21.00;;;10.25;;
70683;SDS011;58263;48.146;11.440;2024-03-08T10:27:35;17.08;;;10.23;;
70683;SDS011;58263;48.146;11.440;2024-03-08T10:30:00;20.45;;;9.40;;
70683;SDS011;58263;48.146;11.440;2024-03-08T10:32:26;19.03;;;9.73;;
70683;SDS011;58263;48.146;11.440;2024-03-08T10:34:51;21.90;;;10.33;;
70683;SDS011;58263;48.146;11.440;2024-03-08T10:37:16;16.75;;;10.32;;
70683;SDS011;58263;48.146;11.440;2024-03-08T10:39:50;16.30;;;9.90;;
70683;SDS011;58263;48.146;11.440;2024-03-08T10:42:27;17.20;;;9.95;;
70683;SDS011;58263;48.146;11.440;2024-03-08T10:44:58;16.33;;;9.68;;
70683;SDS011;58263;48.146;11.440;2024-03-08T10:47:40;15.65;;;9.23;;
70683;SDS011;58263;48.146;11.440;2024-03-08T10:52:35;14.20;;;8.32;;
70683;SDS011;58263;48.146;11.440;2024-03-08T10:55:01;16.05;;;10.20;;
70683;SDS011;58263;48.146;11.440;2024-03-08T10:57:27;14.00;;;8.57;;
70683;SDS011;58263;48.146;11.440;2024-03-08T10:59:52;16.08;;;9.55;;
70683;SDS011;58263;48.146;11.440;2024-03-08T11:02:18;13.43;;;9.60;;
70683;SDS011;58263;48.146;11.440;2024-03-08T11:04:47;11.88;;;8.88;;
70683;SDS011;58263;48.146;11.440;2024-03-08T11:07:14;13.65;;;9.05;;
70683;SDS011;58263;48.146;11.440;2024-03-08T11:09:43;13.40;;;9.30;;
70683;SDS011;58263;48.146;11.440;2024-03-08T11:12:28;13.15;;;10.00;;
70683;SDS011;58263;48.146;11.440;2024-03-08T11:15:01;14.18;;;9.73;;
70683;SDS011;58263;48.146;11.440;2024-03-08T11:20:13;10.80;;;9.15;;
70683;SDS011;58263;48.146;11.440;2024-03-08T11:22:53;13.93;;;10.48;;
70683;SDS011;58263;48.146;11.440;2024-03-08T11:28:11;14.05;;;9.57;;
70683;SDS011;58263;48.146;11.440;2024-03-08T11:30:47;11.95;;;9.63;;
70683;SDS011;58263;48.146;11.440;2024-03-08T11:33:35;12.05;;;10.00;;
70683;SDS011;58263;48.146;11.440;2024-03-08T11:36:08;14.93;;;10.45;;
70683;SDS011;58263;48.146;11.440;2024-03-08T11:38:43;12.68;;;10.05;;
70683;SDS011;58263;48.146;11.440;2024-03-08T11:41:09;11.18;;;9.98;;
70683;SDS011;58263;48.146;11.440;2024-03-08T11:43:39;11.30;;;10.10;;
70683;SDS011;58263;48.146;11.440;2024-03-08T11:46:09;13.50;;;10.50;;
70683;SDS011;58263;48.146;11.440;2024-03-08T11:48:37;13.32;;;10.43;;
70683;SDS011;58263;48.146;11.440;2024-03-08T11:51:03;12.80;;;10.50;;
70683;SDS011;58263;48.146;11.440;2024-03-08T11:53:29;11.77;;;10.30;;
70683;SDS011;58263;48.146;11.440;2024-03-08T11:56:05;12.70;;;10.27;;
70683;SDS011;58263;48.146;11.440;2024-03-08T11:58:31;12.38;;;10.18;;
70683;SDS011;58263;48.146;11.440;2024-03-08T12:01:02;12.05;;;10.07;;
70683;SDS011;58263;48.146;11.440;2024-03-08T12:05:58;12.70;;;9.90;;
70683;SDS011;58263;48.146;11.440;2024-03-08T12:08:28;12.55;;;10.65;;
70683;SDS011;58263;48.146;11.440;2024-03-08T12:10:55;14.35;;;10.65;;
70683;SDS011;58263;48.146;11.440;2024-03-08T12:13:25;12.57;;;11.23;;
70683;SDS011;58263;48.146;11.440;2024-03-08T12:15:54;12.70;;;10.85;;
70683;SDS011;58263;48.146;11.440;2024-03-08T12:18:21;12.45;;;10.50;;
70683;SDS011;58263;48.146;11.440;2024-03-08T12:20:47;13.10;;;10.37;;
70683;SDS011;58263;48.146;11.440;2024-03-08T12:23:15;12.40;;;10.55;;
70683;SDS011;58263;48.146;11.440;2024-03-08T12:25:41;12.80;;;10.55;;
70683;SDS011;58263;48.146;11.440;2024-03-08T12:28:10;12.02;;;10.30;;
70683;SDS011;58263;48.146;11.440;2024-03-08T12:30:47;11.82;;;10.27;;
70683;SDS011;58263;48.146;11.440;2024-03-08T12:33:14;12.98;;;11.05;;
70683;SDS011;58263;48.146;11.440;2024-03-08T12:35:39;14.35;;;10.73;;
70683;SDS011;58263;48.146;11.440;2024-03-08T12:38:05;11.75;;;10.52;;
70683;SDS011;58263;48.146;11.440;2024-03-08T12:40:33;13.68;;;10.80;;
70683;SDS011;58263;48.146;11.440;2024-03-08T12:43:05;13.85;;;10.60;;
70683;SDS011;58263;48.146;11.440;2024-03-08T12:45:31;12.15;;;10.85;;
70683;SDS011;58263;48.146;11.440;2024-03-08T12:47:57;13.82;;;10.90;;
70683;SDS011;58263;48.146;11.440;2024-03-08T12:50:24;12.32;;;10.43;;
70683;SDS011;58263;48.146;11.440;2024-03-08T12:52:50;14.25;;;11.15;;
70683;SDS011;58263;48.146;11.440;2024-03-08T12:55:17;12.40;;;10.70;;
70683;SDS011;58263;48.146;11.440;2024-03-08T12:57:43;13.95;;;11.52;;
70683;SDS011;58263;48.146;11.440;2024-03-08T13:00:09;11.73;;;10.25;;
70683;SDS011;58263;48.146;11.440;2024-03-08T13:02:38;13.10;;;10.63;;
70683;SDS011;58263;48.146;11.440;2024-03-08T13:05:04;14.27;;;12.68;;
70683;SDS011;58263;48.146;11.440;2024-03-08T13:07:30;13.98;;;11.38;;
70683;SDS011;58263;48.146;11.440;2024-03-08T13:09:56;14.77;;;12.05;;
70683;SDS011;58263;48.146;11.440;2024-03-08T13:12:24;14.57;;;10.57;;
70683;SDS011;58263;48.146;11.440;2024-03-08T13:14:50;13.10;;;10.95;;
70683;SDS011;58263;48.146;11.440;2024-03-08T13:17:16;13.88;;;10.32;;
70683;SDS011;58263;48.146;11.440;2024-03-08T13:19:43;14.73;;;11.57;;
70683;SDS011;58263;48.146;11.440;2024-03-08T13:22:09;13.40;;;11.38;;
70683;SDS011;58263;48.146;11.440;2024-03-08T13:24:38;13.13;;;11.00;;
70683;SDS011;58263;48.146;11.440;2024-03-08T13:27:05;13.30;;;10.95;;
70683;SDS011;58263;48.146;11.440;2024-03-08T13:29:41;15.93;;;11.13;;
70683;SDS011;58263;48.146;11.440;2024-03-08T13:32:08;13.30;;;10.48;;
70683;SDS011;58263;48.146;11.440;2024-03-08T13:34:36;13.88;;;11.43;;
70683;SDS011;58263;48.146;11.440;2024-03-08T13:37:01;11.67;;;9.97;;
70683;SDS011;58263;48.146;11.440;2024-03-08T13:39:28;14.05;;;11.10;;
70683;SDS011;58263;48.146;11.440;2024-03-08T13:44:21;13.93;;;11.20;;
70683;SDS011;58263;48.146;11.440;2024-03-08T13:46:46;15.07;;;11.20;;
70683;SDS011;58263;48.146;11.440;2024-03-08T13:49:12;12.32;;;9.90;;
70683;SDS011;58263;48.146;11.440;2024-03-08T13:51:38;12.27;;;10.48;;
70683;SDS011;58263;48.146;11.440;2024-03-08T13:54:03;13.00;;;9.97;;
70683;SDS011;58263;48.146;11.440;2024-03-08T13:56:31;14.57;;;10.85;;
70683;SDS011;58263;48.146;11.440;2024-03-08T13:58:57;12.23;;;10.40;;
70683;SDS011;58263;48.146;11.440;2024-03-08T14:01:22;13.80;;;9.90;;
70683;SDS011;58263;48.146;11.440;2024-03-08T14:03:48;13.77;;;11.15;;
70683;SDS011;58263;48.146;11.440;2024-03-08T14:06:13;11.50;;;9.68;;
70683;SDS011;58263;48.146;11.440;2024-03-08T14:08:39;12.30;;;9.63;;
70683;SDS011;58263;48.146;11.440;2024-03-08T14:11:04;12.30;;;9.75;;
70683;SDS011;58263;48.146;11.440;2024-03-08T14:13:40;14.05;;;10.02;;
70683;SDS011;58263;48.146;11.440;2024-03-08T14:16:11;12.77;;;9.38;;
70683;SDS011;58263;48.146;11.440;2024-03-08T14:18:36;13.23;;;9.52;;
70683;SDS011;58263;48.146;11.440;2024-03-08T14:21:02;11.68;;;9.73;;
70683;SDS011;58263;48.146;11.440;2024-03-08T14:23:29;12.90;;;10.43;;
70683;SDS011;58263;48.146;11.440;2024-03-08T14:25:54;13.25;;;8.80;;
70683;SDS011;58263;48.146;11.440;2024-03-08T14:28:19;13.17;;;9.87;;
70683;SDS011;58263;48.146;11.440;2024-03-08T14:30:45;11.43;;;9.35;;
70683;SDS011;58263;48.146;11.440;2024-03-08T14:33:11;14.33;;;9.03;;